Time;durP1;ratioP1;P1;durP2;ratioP2;P2;SDS_P1;SDS_P2;PMS_P1;PMS_P2;Temp;Humidity;BMP_temperature;BMP_pressure;BME280_temperature;BME280_humidity;BME280_pressure;Samples;Min_cycle;Max_cycle;Signal;HPM_P1;HPM_P2
2024/03/23 00:01:21;;;;;;;3.60;2.23;;;;;;;12.73;99.14;95714.16;5035146;28;20621;-68
2024/03/23 00:03:51;;;;;;;6.37;2.90;;;;;;;12.75;98.29;95709.47;5035928;28;20675;-70
2024/03/23 00:06:20;;;;;;;3.23;2.13;;;;;;;12.80;97.78;95709.66;5034853;28;20204;-71
2024/03/23 00:08:50;;;;;;;4.73;2.50;;;;;;;12.79;97.90;95706.22;5035382;28;20225;-71
2024/03/23 00:11:21;;;;;;;5.30;2.60;;;;;;;12.77;97.98;95691.56;5034862;28;20205;-69
2024/03/23 00:13:51;;;;;;;6.37;2.60;;;;;;;12.90;97.54;95691.59;5035390;28;20197;-70
2024/03/23 00:16:21;;;;;;;5.63;2.37;;;;;;;12.94;96.74;95680.41;5036891;28;20685;-70
2024/03/23 00:18:51;;;;;;;4.33;2.70;;;;;;;12.76;98.96;95680.16;5036169;28;20228;-69
2024/03/23 00:21:20;;;;;;;3.20;2.00;;;;;;;12.71;100.00;95670.44;5036306;28;20205;-69
2024/03/23 00:23:51;;;;;;;7.17;2.73;;;;;;;12.73;99.12;95674.50;5037061;28;20401;-70
2024/03/23 00:26:20;;;;;;;4.20;2.17;;;;;;;12.60;100.00;95665.75;5036813;28;20206;-70
2024/03/23 00:28:50;;;;;;;6.60;2.70;;;;;;;12.67;99.53;95648.88;5035858;28;20305;-68
2024/03/23 00:31:21;;;;;;;9.03;3.23;;;;;;;12.47;100.00;95650.69;5036476;28;20205;-69
2024/03/23 00:33:51;;;;;;;9.60;3.27;;;;;;;12.13;100.00;95654.50;5037450;28;20204;-68
2024/03/23 00:36:20;;;;;;;7.87;3.47;;;;;;;12.15;100.00;95647.22;5037086;28;20579;-70
2024/03/23 00:38:50;;;;;;;3.77;2.40;;;;;;;12.41;100.00;95640.94;5034804;28;20240;-70
2024/03/23 00:41:20;;;;;;;4.20;2.77;;;;;;;12.37;100.00;95650.28;5036738;28;20363;-69
2024/03/23 00:43:50;;;;;;;4.93;2.57;;;;;;;12.43;100.00;95652.09;5036304;28;20243;-70
2024/03/23 00:46:19;;;;;;;4.17;2.27;;;;;;;12.39;100.00;95645.59;5035982;28;20582;-69
2024/03/23 00:48:49;;;;;;;6.60;2.53;;;;;;;12.42;100.00;95647.03;5035266;28;20287;-68
2024/03/23 00:51:19;;;;;;;4.70;2.60;;;;;;;12.30;100.00;95641.53;5036409;28;20207;-69
2024/03/23 00:53:46;;;;;;;3.43;2.23;;;;;;;12.42;100.00;95647.84;5035751;28;20452;-68
2024/03/23 00:56:12;;;;;;;3.83;2.10;;;;;;;12.25;100.00;95643.97;5036525;28;20197;-70
2024/03/23 00:58:38;;;;;;;3.73;2.23;;;;;;;12.37;100.00;95642.38;5034466;28;20229;-68
2024/03/23 01:01:04;;;;;;;4.10;2.60;;;;;;;12.37;100.00;95645.00;5036133;28;20384;-68
2024/03/23 01:03:31;;;;;;;4.00;2.20;;;;;;;12.40;100.00;95641.16;5035716;28;20595;-70
2024/03/23 01:05:59;;;;;;;5.40;2.13;;;;;;;12.48;100.00;95627.72;5036279;28;20209;-70
2024/03/23 01:08:26;;;;;;;6.53;2.70;;;;;;;12.19;100.00;95623.66;5034893;28;20739;-69
2024/03/23 01:10:56;;;;;;;4.00;2.50;;;;;;;12.15;100.00;95616.31;5035730;28;20197;-69
2024/03/23 01:13:23;;;;;;;4.97;2.50;;;;;;;12.10;100.00;95623.22;5036207;28;20212;-70
2024/03/23 01:15:49;;;;;;;4.20;2.47;;;;;;;12.07;100.00;95616.50;5035771;28;20197;-70
2024/03/23 01:18:16;;;;;;;6.13;2.40;;;;;;;11.99;100.00;95616.72;5034749;28;20597;-70
2024/03/23 01:20:41;;;;;;;3.13;2.20;;;;;;;11.98;100.00;95616.91;5035682;28;20205;-69
2024/03/23 01:23:08;;;;;;;4.83;2.40;;;;;;;12.06;100.00;95611.44;5035446;28;20224;-69
2024/03/23 01:25:33;;;;;;;5.03;2.23;;;;;;;12.05;100.00;95607.16;5035414;28;20296;-70
2024/03/23 01:28:01;;;;;;;5.23;2.60;;;;;;;12.19;100.00;95609.63;5035369;28;20397;-70
2024/03/23 01:30:27;;;;;;;5.80;2.93;;;;;;;11.96;100.00;95605.72;5035675;28;20209;-70
2024/03/23 01:32:53;;;;;;;4.13;2.37;;;;;;;12.06;100.00;95601.69;5034827;28;20208;-69
2024/03/23 01:35:19;;;;;;;4.13;2.27;;;;;;;11.96;100.00;95603.88;5035887;28;20371;-69
2024/03/23 01:37:45;;;;;;;3.87;2.23;;;;;;;11.90;100.00;95590.69;5034030;28;20225;-70
2024/03/23 01:40:13;;;;;;;4.37;2.43;;;;;;;12.03;100.00;95594.16;5035176;28;20201;-70
2024/03/23 01:42:39;;;;;;;4.83;2.57;;;;;;;11.76;100.00;95591.66;5035148;28;20263;-70
2024/03/23 01:45:08;;;;;;;4.20;2.33;;;;;;;12.00;100.00;95586.63;5035402;28;20310;-70
2024/03/23 01:47:35;;;;;;;3.40;2.27;;;;;;;11.85;100.00;95582.53;5033798;28;20339;-68
2024/03/23 01:50:00;;;;;;;5.37;2.50;;;;;;;11.79;100.00;95586.00;5035712;28;20472;-70
2024/03/23 01:52:28;;;;;;;4.70;2.17;;;;;;;11.68;100.00;95576.00;5036382;28;20214;-70
2024/03/23 01:54:53;;;;;;;5.53;2.93;;;;;;;11.82;100.00;95572.41;5033784;28;20472;-69
2024/03/23 01:57:21;;;;;;;2.67;2.17;;;;;;;12.02;100.00;95565.31;5034346;28;20212;-69
2024/03/23 01:59:47;;;;;;;2.97;2.27;;;;;;;11.99;100.00;95571.00;5035297;28;20216;-71
2024/03/23 02:02:17;;;;;;;4.73;2.00;;;;;;;12.19;100.00;95557.63;5035049;28;20498;-71
2024/03/23 02:04:43;;;;;;;3.47;2.03;;;;;;;11.92;100.00;95555.16;5034045;28;20666;-71
2024/03/23 02:07:09;;;;;;;4.10;2.50;;;;;;;11.97;100.00;95557.19;5034486;28;20207;-71
2024/03/23 02:09:35;;;;;;;6.13;2.30;;;;;;;11.96;100.00;95545.81;5035046;28;20702;-70
2024/03/23 02:12:03;;;;;;;3.00;2.33;;;;;;;12.09;100.00;95545.81;5034645;28;20201;-70
2024/03/23 02:14:28;;;;;;;2.67;1.90;;;;;;;11.77;100.00;95537.88;5034835;28;20205;-69
2024/03/23 02:16:55;;;;;;;3.80;2.40;;;;;;;11.91;100.00;95547.44;5034316;28;20738;-70
2024/03/23 02:19:22;;;;;;;5.53;2.20;;;;;;;12.05;100.00;95541.16;5034878;28;20605;-71
2024/03/23 02:21:48;;;;;;;2.83;1.97;;;;;;;11.80;100.00;95540.09;5034580;28;20209;-69
2024/03/23 02:24:15;;;;;;;2.93;1.90;;;;;;;12.09;100.00;95534.44;5035422;28;20232;-71
2024/03/23 02:26:41;;;;;;;3.40;2.00;;;;;;;11.90;100.00;95528.16;5033907;28;20296;-70
2024/03/23 02:29:09;;;;;;;4.40;2.70;;;;;;;11.89;100.00;95530.97;5034195;28;20229;-71
2024/03/23 02:31:35;;;;;;;2.70;1.87;;;;;;;11.64;100.00;95527.28;5034318;28;20205;-70
2024/03/23 02:34:01;;;;;;;5.33;2.40;;;;;;;11.56;100.00;95524.84;5035425;28;20219;-69
2024/03/23 02:36:27;;;;;;;6.63;2.37;;;;;;;11.65;100.00;95523.66;5034002;28;20201;-70
2024/03/23 02:38:53;;;;;;;4.20;2.40;;;;;;;11.63;100.00;95523.84;5034074;28;20227;-70
2024/03/23 02:41:23;;;;;;;4.40;2.10;;;;;;;11.89;100.00;95520.41;5034558;28;20208;-70
2024/03/23 02:43:49;;;;;;;4.83;2.60;;;;;;;11.75;100.00;95521.44;5034547;28;20224;-70
2024/03/23 02:46:15;;;;;;;5.10;2.60;;;;;;;11.53;100.00;95524.44;5034296;28;20204;-69
2024/03/23 02:48:41;;;;;;;5.03;2.47;;;;;;;11.73;100.00;95512.91;5033647;28;20236;-71
2024/03/23 02:51:08;;;;;;;5.97;2.87;;;;;;;11.82;100.00;95503.75;5037685;28;20201;-70
2024/03/23 02:53:33;;;;;;;4.20;2.30;;;;;;;11.74;100.00;95503.97;5038256;28;20210;-70
2024/03/23 02:56:00;;;;;;;4.23;2.53;;;;;;;11.68;100.00;95494.22;5039393;28;20550;-70
2024/03/23 02:58:26;;;;;;;6.23;2.80;;;;;;;11.87;100.00;95493.41;5037273;28;20220;-69
2024/03/23 03:00:53;;;;;;;4.37;2.53;;;;;;;11.71;100.00;95493.78;5037373;28;20293;-70
2024/03/23 03:03:18;;;;;;;5.30;2.60;;;;;;;11.48;100.00;95479.34;5038344;28;20868;-69
2024/03/23 03:05:45;;;;;;;3.77;2.43;;;;;;;11.69;100.00;95478.16;5039137;28;20209;-69
2024/03/23 03:08:10;;;;;;;4.47;2.23;;;;;;;11.77;100.00;95463.97;5037784;28;20221;-71
2024/03/23 03:10:37;;;;;;;3.93;2.60;;;;;;;11.86;100.00;95473.31;5035099;28;20206;-69
2024/03/23 03:13:03;;;;;;;4.77;2.13;;;;;;;11.99;100.00;95463.56;5038867;28;20204;-69
2024/03/23 03:15:31;;;;;;;4.30;2.53;;;;;;;12.12;100.00;95462.72;5038390;28;20586;-69
2024/03/23 03:17:56;;;;;;;4.83;2.40;;;;;;;11.89;100.00;95457.06;5036653;28;20476;-70
2024/03/23 03:20:24;;;;;;;4.97;2.80;;;;;;;11.91;100.00;95457.66;5038753;28;20224;-71
2024/03/23 03:22:49;;;;;;;5.77;2.33;;;;;;;11.98;100.00;95450.59;5036340;28;20260;-71
2024/03/23 03:25:16;;;;;;;4.97;2.60;;;;;;;12.02;100.00;95452.59;5038222;28;20926;-71
2024/03/23 03:27:41;;;;;;;6.80;2.77;;;;;;;11.83;100.00;95458.69;5036307;28;20233;-70
2024/03/23 03:30:09;;;;;;;4.70;2.73;;;;;;;11.81;100.00;95449.34;5038421;28;20870;-70
2024/03/23 03:32:36;;;;;;;6.10;2.60;;;;;;;12.08;100.00;95448.31;5036926;28;20213;-71
2024/03/23 03:35:02;;;;;;;4.93;2.20;;;;;;;11.84;100.00;95427.84;5038717;28;20224;-71
2024/03/23 03:37:28;;;;;;;4.63;2.70;;;;;;;11.83;100.00;95436.78;5036983;28;20884;-69
2024/03/23 03:39:54;;;;;;;4.57;2.23;;;;;;;11.70;100.00;95442.84;5036998;28;20201;-71
2024/03/23 03:42:20;;;;;;;4.80;2.40;;;;;;;11.87;100.00;95443.25;5037120;28;20209;-70
2024/03/23 03:44:46;;;;;;;4.20;2.50;;;;;;;11.93;100.00;95442.47;5037648;28;20225;-71
2024/03/23 03:47:12;;;;;;;4.60;1.90;;;;;;;11.89;100.00;95441.22;5036500;28;20208;-70
2024/03/23 03:49:40;;;;;;;3.13;2.10;;;;;;;11.97;100.00;95430.47;5036701;28;20586;-71
2024/03/23 03:52:06;;;;;;;3.93;2.93;;;;;;;11.90;100.00;95443.69;5037921;28;20201;-71
2024/03/23 03:54:34;;;;;;;3.50;2.07;;;;;;;12.05;100.00;95435.53;5036612;28;20205;-69
2024/03/23 03:57:00;;;;;;;3.87;2.13;;;;;;;11.85;100.00;95434.72;5036916;28;20201;-70
2024/03/23 03:59:27;;;;;;;3.27;2.30;;;;;;;11.82;100.00;95425.38;5037139;28;20221;-71
2024/03/23 04:01:52;;;;;;;4.83;2.07;;;;;;;11.80;100.00;95430.06;5036136;28;20885;-71
2024/03/23 04:04:20;;;;;;;6.03;3.70;;;;;;;11.83;100.00;95415.66;5037326;28;20390;-71
2024/03/23 04:06:47;;;;;;;11.83;5.00;;;;;;;11.99;100.00;95412.56;5037036;28;20698;-71
2024/03/23 04:09:15;;;;;;;11.77;5.00;;;;;;;11.72;100.00;95416.25;5036930;28;20667;-70
2024/03/23 04:11:40;;;;;;;6.67;3.17;;;;;;;11.73;100.00;95409.97;5037300;28;20319;-69
2024/03/23 04:14:07;;;;;;;4.47;2.70;;;;;;;11.70;100.00;95399.81;5037562;28;20405;-71
2024/03/23 04:16:34;;;;;;;3.47;2.07;;;;;;;11.99;100.00;95402.00;5036282;28;20201;-71
2024/03/23 04:19:01;;;;;;;3.77;2.70;;;;;;;11.71;100.00;95409.34;5035860;28;20220;-71
2024/03/23 04:21:27;;;;;;;4.47;2.60;;;;;;;11.86;100.00;95405.50;5038273;28;20209;-70
2024/03/23 04:23:54;;;;;;;5.00;2.50;;;;;;;11.99;100.00;95394.94;5037707;28;20231;-71
2024/03/23 04:26:20;;;;;;;4.20;2.80;;;;;;;11.95;100.00;95390.25;5036538;28;20215;-69
2024/03/23 04:28:46;;;;;;;5.60;3.03;;;;;;;11.75;100.00;95392.13;5034801;28;20237;-71
2024/03/23 04:31:12;;;;;;;4.93;2.90;;;;;;;11.54;100.00;95384.38;5036563;28;20201;-70
2024/03/23 04:33:39;;;;;;;5.23;2.90;;;;;;;11.66;100.00;95383.59;5036596;28;20686;-70
2024/03/23 04:36:04;;;;;;;6.27;3.20;;;;;;;11.68;100.00;95386.00;5036569;28;20678;-69
2024/03/23 04:38:31;;;;;;;7.70;3.20;;;;;;;11.74;100.00;95374.66;5036133;28;20220;-70
2024/03/23 04:41:00;;;;;;;10.17;3.20;;;;;;;11.71;100.00;95365.31;5036366;28;20208;-71
2024/03/23 04:43:26;;;;;;;7.50;3.27;;;;;;;11.67;100.00;95376.47;5036127;28;20231;-70
2024/03/23 04:45:53;;;;;;;12.53;5.43;;;;;;;11.52;100.00;95365.34;5036344;28;20205;-71
2024/03/23 04:48:21;;;;;;;6.67;3.70;;;;;;;11.42;100.00;95364.88;5035246;28;20901;-70
2024/03/23 04:50:47;;;;;;;5.27;3.07;;;;;;;11.35;100.00;95361.41;5036041;28;20287;-70
2024/03/23 04:53:14;;;;;;;19.70;6.57;;;;;;;11.14;100.00;95358.19;5037057;28;20448;-69
2024/03/23 04:55:40;;;;;;;10.03;4.47;;;;;;;11.06;100.00;95359.19;5035812;28;20494;-70
2024/03/23 04:58:07;;;;;;;10.17;4.03;;;;;;;11.27;100.00;95359.00;5035907;28;20221;-71
2024/03/23 05:00:34;;;;;;;11.83;3.97;;;;;;;11.19;100.00;95347.84;5035251;28;20300;-71
2024/03/23 05:03:00;;;;;;;17.37;6.10;;;;;;;11.25;100.00;95339.09;5035768;28;20207;-71
2024/03/23 05:05:26;;;;;;;7.23;3.80;;;;;;;11.34;100.00;95324.72;5035240;28;20594;-71
2024/03/23 05:07:52;;;;;;;10.73;4.43;;;;;;;11.31;100.00;95320.66;5035583;28;20240;-71
2024/03/23 05:10:18;;;;;;;13.23;5.40;;;;;;;11.15;100.00;95307.88;5036280;28;20238;-71
2024/03/23 05:12:45;;;;;;;10.10;4.33;;;;;;;11.12;100.00;95305.63;5036098;28;20683;-69
2024/03/23 05:15:12;;;;;;;6.90;3.30;;;;;;;11.58;100.00;95290.63;5036684;28;20197;-70
2024/03/23 05:17:39;;;;;;;14.60;4.40;;;;;;;11.57;100.00;95284.53;5034811;28;20229;-71
2024/03/23 05:20:09;;;;;;;20.10;5.77;;;;;;;11.66;100.00;95282.50;5036042;28;20562;-71
2024/03/23 05:22:36;;;;;;;19.57;5.73;;;;;;;11.70;100.00;95279.22;5036501;28;21038;-69
2024/03/23 05:25:04;;;;;;;13.80;5.43;;;;;;;11.48;100.00;95279.66;5036178;28;20228;-71
2024/03/23 05:27:30;;;;;;;11.77;4.57;;;;;;;11.44;100.00;95275.78;5034562;28;20592;-70
2024/03/23 05:29:56;;;;;;;8.57;4.57;;;;;;;11.62;100.00;95270.72;5036123;28;20201;-70
2024/03/23 05:32:24;;;;;;;10.03;3.97;;;;;;;11.92;100.00;95256.81;5036353;28;20209;-71
2024/03/23 05:34:55;;;;;;;18.00;5.83;;;;;;;11.68;100.00;95269.91;5035346;28;20213;-71
2024/03/23 05:37:22;;;;;;;11.67;4.90;;;;;;;11.81;100.00;95254.84;5034770;28;20675;-69
2024/03/23 05:39:49;;;;;;;10.53;3.83;;;;;;;11.92;100.00;95250.75;5035625;28;20209;-70
2024/03/23 05:42:16;;;;;;;15.53;5.17;;;;;;;12.07;100.00;95252.13;5035303;28;20205;-70
2024/03/23 05:44:43;;;;;;;8.50;3.73;;;;;;;12.39;100.00;95243.22;5035743;28;20612;-71
2024/03/23 05:47:09;;;;;;;10.70;4.20;;;;;;;12.22;100.00;95234.19;5035144;28;20201;-70
2024/03/23 05:49:37;;;;;;;15.23;5.07;;;;;;;12.44;100.00;95240.75;5035642;28;20216;-69
2024/03/23 05:52:04;;;;;;;10.70;4.00;;;;;;;12.37;100.00;95235.50;5034925;28;20251;-69
2024/03/23 05:54:29;;;;;;;6.57;3.43;;;;;;;12.46;100.00;95234.25;5035579;28;20577;-71
2024/03/23 05:56:56;;;;;;;15.43;4.33;;;;;;;12.37;100.00;95230.22;5034215;28;20201;-70
2024/03/23 05:59:23;;;;;;;13.90;4.43;;;;;;;12.48;100.00;95231.38;5035524;28;20229;-70
2024/03/23 06:01:49;;;;;;;5.43;2.47;;;;;;;12.72;100.00;95234.06;5035900;28;20211;-70
2024/03/23 06:04:15;;;;;;;7.07;3.30;;;;;;;12.75;100.00;95233.63;5035346;28;20602;-71
2024/03/23 06:06:42;;;;;;;3.80;2.30;;;;;;;12.85;100.00;95233.97;5034772;28;20714;-70
2024/03/23 06:09:08;;;;;;;5.77;2.30;;;;;;;12.81;100.00;95232.78;5035418;28;20251;-69
2024/03/23 06:11:34;;;;;;;6.93;2.50;;;;;;;12.94;100.00;95238.78;5035177;28;20217;-71
2024/03/23 06:14:01;;;;;;;2.60;1.77;;;;;;;13.11;100.00;95228.50;5035342;28;20576;-71
2024/03/23 06:16:27;;;;;;;4.40;1.63;;;;;;;13.22;100.00;95215.38;5035778;28;20208;-71
2024/03/23 06:18:54;;;;;;;3.20;1.80;;;;;;;13.36;100.00;95226.66;5034562;28;20232;-71
2024/03/23 06:21:20;;;;;;;7.20;1.93;;;;;;;13.20;100.00;95208.66;5035054;28;20228;-70
2024/03/23 06:23:51;;;;;;;3.20;2.40;;;;;;;13.63;100.00;95211.09;5035443;28;20407;-70
2024/03/23 06:26:16;;;;;;;4.77;2.00;;;;;;;13.54;100.00;95215.06;5035524;28;20205;-71
2024/03/23 06:28:43;;;;;;;7.47;3.40;;;;;;;13.14;100.00;95217.50;5032947;28;20896;-70
2024/03/23 06:31:09;;;;;;;4.60;2.57;;;;;;;13.47;100.00;95221.44;5035587;28;21343;-71
2024/03/23 06:33:35;;;;;;;3.17;2.00;;;;;;;13.35;100.00;95241.69;5035001;28;20213;-70
2024/03/23 06:36:02;;;;;;;3.63;2.27;;;;;;;13.36;100.00;95248.63;5034997;28;20977;-71
2024/03/23 06:38:28;;;;;;;3.73;2.10;;;;;;;13.39;100.00;95246.34;5034635;28;20225;-71
2024/03/23 06:40:55;;;;;;;3.33;1.70;;;;;;;13.46;100.00;95270.09;5034017;28;20205;-71
2024/03/23 06:43:22;;;;;;;2.50;1.90;;;;;;;13.05;100.00;95324.59;5034892;28;20251;-71
2024/03/23 06:45:52;;;;;;;3.10;1.90;;;;;;;12.96;100.00;95373.47;5034848;28;20420;-69
2024/03/23 06:48:19;;;;;;;2.23;1.43;;;;;;;11.76;100.00;95389.25;5033606;28;20290;-70
2024/03/23 06:50:46;;;;;;;3.37;2.00;;;;;;;11.55;100.00;95401.06;5034662;28;20264;-70
2024/03/23 06:53:12;;;;;;;3.80;2.03;;;;;;;11.41;100.00;95402.03;5035482;28;20193;-71
2024/03/23 06:55:38;;;;;;;4.37;2.10;;;;;;;11.02;100.00;95397.50;5034385;28;20231;-70
2024/03/23 06:58:06;;;;;;;3.63;2.03;;;;;;;11.32;100.00;95404.03;5033490;28;20746;-70
2024/03/23 07:00:32;;;;;;;4.37;2.03;;;;;;;11.09;100.00;95414.13;5032523;28;21169;-71
2024/03/23 07:02:59;;;;;;;1.87;1.20;;;;;;;10.95;100.00;95424.84;5026535;28;20205;-70
2024/03/23 07:05:24;;;;;;;3.40;1.87;;;;;;;10.87;100.00;95411.88;5032147;28;20220;-68
2024/03/23 07:07:51;;;;;;;2.50;1.40;;;;;;;10.83;100.00;95412.44;5032517;28;20244;-70
2024/03/23 07:10:17;;;;;;;3.53;1.63;;;;;;;10.98;100.00;95422.66;5033088;28;20686;-70
2024/03/23 07:12:44;;;;;;;2.23;1.47;;;;;;;11.11;100.00;95409.50;5034920;28;20303;-70
2024/03/23 07:15:11;;;;;;;1.80;1.40;;;;;;;11.26;100.00;95412.75;5035167;28;20201;-70
2024/03/23 07:17:37;;;;;;;4.37;1.67;;;;;;;11.08;100.00;95409.88;5033916;28;20225;-70
2024/03/23 07:20:03;;;;;;;2.90;1.70;;;;;;;11.17;100.00;95406.03;5034357;28;20206;-69
2024/03/23 07:22:30;;;;;;;7.00;2.50;;;;;;;11.23;100.00;95402.59;5032596;28;20561;-70
2024/03/23 07:24:56;;;;;;;13.47;3.73;;;;;;;11.22;100.00;95406.25;5033186;28;20229;-70
2024/03/23 07:27:23;;;;;;;16.50;5.30;;;;;;;11.23;100.00;95415.78;5033601;28;20707;-70
2024/03/23 07:29:49;;;;;;;7.67;3.63;;;;;;;11.32;100.00;95411.94;5030601;28;20206;-69
2024/03/23 07:32:17;;;;;;;3.27;1.83;;;;;;;11.55;100.00;95422.97;5031976;28;20224;-69
2024/03/23 07:34:44;;;;;;;13.30;3.80;;;;;;;11.37;100.00;95430.63;5033524;28;20242;-70
2024/03/23 07:37:10;;;;;;;5.70;2.70;;;;;;;11.50;100.00;95446.50;5034728;28;20687;-70
2024/03/23 07:39:36;;;;;;;3.73;2.03;;;;;;;11.45;100.00;95450.72;5036768;28;20208;-70
2024/03/23 07:42:03;;;;;;;2.00;1.30;;;;;;;11.26;100.00;95454.94;5036751;28;20637;-70
2024/03/23 07:44:29;;;;;;;2.40;1.33;;;;;;;11.12;100.00;95453.28;5037877;28;20332;-70
2024/03/23 07:46:55;;;;;;;2.43;1.60;;;;;;;10.93;100.00;95469.88;5035238;28;20250;-70
2024/03/23 07:49:22;;;;;;;2.43;1.47;;;;;;;11.17;100.00;95477.22;5036393;28;20231;-70
2024/03/23 07:51:49;;;;;;;1.43;1.20;;;;;;;10.91;100.00;95470.25;5035812;28;20225;-70
2024/03/23 07:54:14;;;;;;;3.93;1.60;;;;;;;11.10;100.00;95476.41;5037272;28;20201;-69
2024/03/23 07:56:41;;;;;;;3.67;1.90;;;;;;;11.13;100.00;95478.63;5037934;28;20563;-70
2024/03/23 07:59:06;;;;;;;3.77;1.83;;;;;;;11.14;100.00;95480.28;5037287;28;20229;-71
2024/03/23 08:01:33;;;;;;;3.70;1.50;;;;;;;11.09;100.00;95482.69;5037547;28;20220;-70
2024/03/23 08:03:59;;;;;;;2.70;1.40;;;;;;;10.93;100.00;95470.88;5035851;28;20561;-70
2024/03/23 08:06:27;;;;;;;3.03;1.40;;;;;;;11.20;100.00;95483.94;5036521;28;20338;-70
2024/03/23 08:08:59;;;;;;;2.60;1.37;;;;;;;11.37;100.00;95493.13;5034229;28;21046;-70
2024/03/23 08:11:26;;;;;;;1.87;1.00;;;;;;;11.13;100.00;95512.13;5032351;28;20208;-70
2024/03/23 08:13:52;;;;;;;2.47;1.03;;;;;;;11.21;100.00;95512.72;5036650;28;20201;-70
2024/03/23 08:16:18;;;;;;;1.53;0.90;;;;;;;11.21;100.00;95515.38;5035628;28;20797;-70
2024/03/23 08:18:44;;;;;;;1.10;0.67;;;;;;;10.92;100.00;95521.97;5035664;28;20225;-70
2024/03/23 08:21:11;;;;;;;0.60;0.60;;;;;;;10.90;100.00;95521.34;5035209;28;20201;-70
2024/03/23 08:23:38;;;;;;;0.90;0.60;;;;;;;11.08;100.00;95536.41;5035001;28;20736;-69
2024/03/23 08:26:06;;;;;;;3.20;0.50;;;;;;;11.01;100.00;95535.59;5037541;28;20279;-70
2024/03/23 08:28:32;;;;;;;0.50;0.47;;;;;;;10.81;100.00;95559.41;5035605;28;20613;-70
2024/03/23 08:31:03;;;;;;;0.43;0.43;;;;;;;11.01;100.00;95576.97;5036631;28;20686;-69
2024/03/23 08:33:28;;;;;;;2.43;0.60;;;;;;;10.88;100.00;95560.25;5036994;28;20266;-71
2024/03/23 08:35:56;;;;;;;0.60;0.40;;;;;;;10.70;100.00;95562.59;5034321;28;20201;-70
2024/03/23 08:38:22;;;;;;;1.23;0.37;;;;;;;10.86;100.00;95557.81;5033509;28;20290;-70
2024/03/23 08:40:57;;;;;;;2.80;0.73;;;;;;;11.34;100.00;95568.19;5036151;28;21225;-69
2024/03/23 08:43:23;;;;;;;1.57;0.67;;;;;;;10.95;100.00;95570.63;5033591;28;20200;-70
2024/03/23 08:45:49;;;;;;;0.50;0.30;;;;;;;11.01;100.00;95567.22;5034964;28;20229;-70
2024/03/23 08:48:15;;;;;;;1.00;0.60;;;;;;;11.27;100.00;95579.72;5032205;28;20244;-69
2024/03/23 08:50:42;;;;;;;0.40;0.40;;;;;;;11.13;100.00;95576.19;5035359;28;20209;-70
2024/03/23 08:53:08;;;;;;;0.40;0.40;;;;;;;11.10;100.00;95579.22;5035963;28;20239;-70
2024/03/23 08:55:35;;;;;;;0.40;0.40;;;;;;;11.17;100.00;95581.91;5037508;28;20671;-69
2024/03/23 08:58:02;;;;;;;0.50;0.50;;;;;;;11.31;100.00;95589.66;5034340;28;20231;-69
2024/03/23 09:00:28;;;;;;;0.30;0.30;;;;;;;11.28;100.00;95579.50;5036090;28;20295;-69
2024/03/23 09:02:55;;;;;;;0.53;0.40;;;;;;;11.34;100.00;95584.00;5033903;28;20228;-70
2024/03/23 09:05:21;;;;;;;0.53;0.40;;;;;;;11.53;100.00;95593.81;5035984;28;20225;-71
2024/03/23 09:07:47;;;;;;;0.30;0.30;;;;;;;11.54;100.00;95627.13;5033301;28;20739;-72
2024/03/23 09:10:13;;;;;;;1.70;0.97;;;;;;;11.54;100.00;95603.38;5033036;28;20201;-71
2024/03/23 09:12:39;;;;;;;0.67;0.40;;;;;;;11.49;100.00;95616.31;5034664;28;20208;-70
2024/03/23 09:15:08;;;;;;;0.40;0.37;;;;;;;11.87;100.00;95613.00;5035804;28;20205;-69
2024/03/23 09:17:33;;;;;;;0.33;0.33;;;;;;;11.72;100.00;95624.75;5035180;28;20221;-70
2024/03/23 09:20:00;;;;;;;0.60;0.20;;;;;;;12.01;100.00;95624.44;5035468;28;20212;-69
2024/03/23 09:22:25;;;;;;;0.30;0.30;;;;;;;11.99;100.00;95642.28;5036230;28;20595;-70
2024/03/23 09:24:52;;;;;;;0.23;0.23;;;;;;;11.63;100.00;95654.97;5035547;28;20225;-71
2024/03/23 09:27:17;;;;;;;0.70;0.40;;;;;;;11.63;100.00;95652.31;5030899;28;20220;-70
2024/03/23 09:29:45;;;;;;;0.20;0.20;;;;;;;12.00;100.00;95646.56;5033155;28;20201;-70
2024/03/23 09:32:12;;;;;;;0.20;0.20;;;;;;;11.90;100.00;95659.31;5035252;28;20205;-70
2024/03/23 09:34:38;;;;;;;0.67;0.40;;;;;;;11.25;100.00;95666.94;5035088;28;20236;-70
2024/03/23 09:37:04;;;;;;;0.70;0.40;;;;;;;11.44;100.00;95676.75;5034655;28;20212;-70
2024/03/23 09:39:32;;;;;;;0.70;0.47;;;;;;;11.27;100.00;95662.28;5035575;28;20217;-69
2024/03/23 09:41:57;;;;;;;1.10;0.33;;;;;;;11.22;100.00;95680.50;5034703;28;20201;-71
2024/03/23 09:44:26;;;;;;;0.57;0.40;;;;;;;11.17;100.00;95668.91;5035153;28;20228;-71
2024/03/23 09:46:51;;;;;;;6.00;1.27;;;;;;;11.08;100.00;95678.78;5034899;28;20903;-70
2024/03/23 09:49:20;;;;;;;0.70;0.70;;;;;;;11.28;100.00;95671.81;5034769;28;20233;-69
2024/03/23 09:51:46;;;;;;;0.30;0.30;;;;;;;11.26;100.00;95673.81;5035147;28;20212;-69
2024/03/23 09:54:13;;;;;;;1.03;0.60;;;;;;;11.16;99.78;95696.28;5033408;28;20205;-68
2024/03/23 09:56:38;;;;;;;0.70;0.70;;;;;;;10.91;96.82;95694.28;5034670;28;20697;-68
2024/03/23 09:59:05;;;;;;;0.77;0.60;;;;;;;11.07;98.20;95687.72;5033266;28;20231;-68
2024/03/23 10:01:32;;;;;;;2.10;0.80;;;;;;;11.20;95.13;95695.72;5035335;28;20209;-68
2024/03/23 10:03:58;;;;;;;0.83;0.70;;;;;;;11.07;95.07;95697.44;5034145;28;20208;-70
2024/03/23 10:06:25;;;;;;;1.00;0.70;;;;;;;11.47;97.00;95694.84;5034692;28;20221;-69
2024/03/23 10:08:54;;;;;;;0.80;0.80;;;;;;;11.16;96.16;95689.22;5033832;28;20228;-68
2024/03/23 10:11:21;;;;;;;0.80;0.70;;;;;;;11.21;91.34;95684.13;5035471;28;20216;-69
2024/03/23 10:13:48;;;;;;;0.90;0.80;;;;;;;11.59;95.37;95651.09;5034941;28;20231;-69
2024/03/23 10:16:21;;;;;;;0.80;0.60;;;;;;;11.95;97.10;95660.38;5034792;28;20197;-70
2024/03/23 10:18:48;;;;;;;2.13;0.53;;;;;;;11.23;99.28;95650.50;5034777;28;20787;-69
2024/03/23 10:21:14;;;;;;;3.27;0.80;;;;;;;10.93;100.00;95653.56;5032723;28;20223;-69
2024/03/23 10:23:44;;;;;;;1.13;0.77;;;;;;;10.63;100.00;95691.66;5031499;28;20212;-68
2024/03/23 10:26:14;;;;;;;0.83;0.77;;;;;;;10.85;100.00;95695.88;5033958;28;20233;-69
2024/03/23 10:28:52;;;;;;;1.90;0.80;;;;;;;10.93;100.00;95690.44;5034500;28;20241;-68
2024/03/23 10:31:19;;;;;;;2.70;1.00;;;;;;;10.84;100.00;95702.13;5034493;28;20205;-70
2024/03/23 10:33:46;;;;;;;1.63;0.90;;;;;;;10.77;100.00;95716.28;5035946;28;20205;-70
2024/03/23 10:36:12;;;;;;;2.40;0.90;;;;;;;10.99;99.53;95724.75;5033836;28;20263;-70
2024/03/23 10:38:41;;;;;;;1.50;0.97;;;;;;;10.93;100.00;95727.34;5034341;28;20256;-70
2024/03/23 10:41:10;;;;;;;3.33;1.17;;;;;;;10.71;100.00;95722.31;5034631;28;20216;-69
2024/03/23 10:43:36;;;;;;;0.90;0.83;;;;;;;10.57;99.91;95731.13;5035468;28;20254;-70
2024/03/23 10:46:02;;;;;;;5.47;1.33;;;;;;;10.43;99.93;95761.75;5034253;28;20221;-70
2024/03/23 10:48:28;;;;;;;5.77;1.73;;;;;;;10.21;100.00;95766.38;5033921;28;20217;-69
2024/03/23 10:50:55;;;;;;;2.77;1.20;;;;;;;10.28;99.08;95785.72;5035198;28;20205;-69
2024/03/23 10:53:25;;;;;;;2.13;1.33;;;;;;;10.55;99.73;95796.34;5033943;28;20207;-68
2024/03/23 10:55:52;;;;;;;5.37;1.50;;;;;;;10.46;99.61;95798.28;5035293;28;20224;-68
2024/03/23 10:58:24;;;;;;;2.23;1.07;;;;;;;10.46;93.30;95824.63;5032548;28;20222;-69
2024/03/23 11:00:51;;;;;;;2.33;1.27;;;;;;;10.36;92.44;95776.69;5034394;28;20693;-70
2024/03/23 11:03:33;;;;;;;2.43;1.33;;;;;;;10.93;93.38;95758.97;5033343;28;20341;-69
2024/03/23 11:06:00;;;;;;;1.93;1.37;;;;;;;10.99;91.05;95743.22;5032036;28;20253;-69
2024/03/23 11:08:34;;;;;;;2.00;1.10;;;;;;;11.35;91.03;95737.81;5031557;28;20261;-69
2024/03/23 11:11:13;;;;;;;4.13;1.20;;;;;;;11.34;90.26;95760.75;5036218;28;20201;-69
2024/03/23 11:13:40;;;;;;;4.10;1.40;;;;;;;10.91;91.58;95783.91;5039135;28;20915;-69
2024/03/23 11:16:14;;;;;;;2.10;1.40;;;;;;;11.07;88.83;95781.81;5037315;28;21346;-69
2024/03/23 11:18:40;;;;;;;4.10;1.37;;;;;;;11.23;86.02;95782.34;5035348;28;20224;-68
2024/03/23 11:21:07;;;;;;;2.10;1.03;;;;;;;11.13;79.86;95766.03;5035633;28;20255;-69
2024/03/23 11:23:33;;;;;;;5.03;1.63;;;;;;;11.22;78.48;95772.81;5038278;28;20201;-69